Time;durP1;ratioP1;P1;durP2;ratioP2;P2;SDS_P1;SDS_P2;PMS_P1;PMS_P2;Temp;Humidity;BMP_temperature;BMP_pressure;BME280_temperature;BME280_humidity;BME280_pressure;Samples;Min_cycle;Max_cycle;Signal;HPM_P1;HPM_P2
2024/02/01 00:01:23;;;;;;;74.00;70.13;;;;;;;;;;5035368;28;20033;-53
2024/02/01 00:03:49;;;;;;;77.55;73.68;;;;;;;;;;5034247;28;20102;-59
2024/02/01 00:06:15;;;;;;;75.45;71.35;;;;;;;;;;5035702;28;20029;-60
2024/02/01 00:08:40;;;;;;;74.93;71.22;;;;;;;;;;5035956;28;20128;-51
2024/02/01 00:11:06;;;;;;;68.70;65.15;;;;;;;;;;5034994;28;20112;-60
2024/02/01 00:13:31;;;;;;;70.38;66.85;;;;;;;;;;5036480;28;20119;-60
2024/02/01 00:15:57;;;;;;;69.95;66.25;;;;;;;;;;5033554;28;20459;-51
2024/02/01 00:18:23;;;;;;;66.57;63.17;;;;;;;;;;5032479;28;20017;-53
2024/02/01 00:20:48;;;;;;;67.05;63.58;;;;;;;;;;5034074;28;20106;-60
2024/02/01 00:23:14;;;;;;;67.45;64.05;;;;;;;;;;5033532;28;20461;-59
2024/02/01 00:25:39;;;;;;;62.10;58.92;;;;;;;;;;5031541;28;20813;-59
2024/02/01 00:28:05;;;;;;;64.53;61.28;;;;;;;;;;5034524;28;20509;-60
2024/02/01 00:30:31;;;;;;;62.03;58.67;;;;;;;;;;5033215;28;20021;-59
2024/02/01 00:32:57;;;;;;;58.17;54.97;;;;;;;;;;5032338;28;20048;-55
2024/02/01 00:35:22;;;;;;;62.60;59.45;;;;;;;;;;5032443;28;20037;-54
2024/02/01 00:37:47;;;;;;;57.53;54.53;;;;;;;;;;5032099;28;20037;-55
2024/02/01 00:40:13;;;;;;;56.25;53.45;;;;;;;;;;5033159;28;20025;-55
2024/02/01 00:42:39;;;;;;;57.05;54.15;;;;;;;;;;5032855;28;20049;-53
2024/02/01 00:45:05;;;;;;;52.63;49.97;;;;;;;;;;5034502;28;20033;-53
2024/02/01 00:47:31;;;;;;;57.53;54.63;;;;;;;;;;5032080;28;20041;-52
2024/02/01 00:49:56;;;;;;;52.75;50.08;;;;;;;;;;5032466;28;20034;-60
2024/02/01 00:52:21;;;;;;;51.33;48.72;;;;;;;;;;5032914;28;20033;-53
2024/02/01 00:54:47;;;;;;;53.85;51.15;;;;;;;;;;5032484;28;20043;-54
2024/02/01 00:57:12;;;;;;;45.70;43.30;;;;;;;;;;5032152;28;20021;-55
2024/02/01 00:59:37;;;;;;;42.95;40.70;;;;;;;;;;5031062;28;20129;-54
2024/02/01 01:02:03;;;;;;;42.78;40.58;;;;;;;;;;5032843;28;20375;-53
2024/02/01 01:04:29;;;;;;;43.30;41.10;;;;;;;;;;5032477;28;20037;-54
2024/02/01 01:06:54;;;;;;;39.83;37.78;;;;;;;;;;5033442;28;21625;-56
2024/02/01 01:09:20;;;;;;;39.97;37.88;;;;;;;;;;5031883;28;20379;-59
2024/02/01 01:11:45;;;;;;;40.83;38.28;;;;;;;;;;5031919;28;20041;-59
2024/02/01 01:14:10;;;;;;;34.50;32.70;;;;;;;;;;5030900;28;20029;-54
2024/02/01 01:16:36;;;;;;;36.97;35.00;;;;;;;;;;5029621;28;20121;-59
2024/02/01 01:19:01;;;;;;;38.35;36.35;;;;;;;;;;5032541;28;20029;-60
2024/02/01 01:21:30;;;;;;;36.63;34.72;;;;;;;;;;5032755;28;20030;-60
2024/02/01 01:23:55;;;;;;;36.65;34.60;;;;;;;;;;5031394;28;20037;-53
2024/02/01 01:26:22;;;;;;;36.70;34.70;;;;;;;;;;5032762;28;20039;-53
2024/02/01 01:28:47;;;;;;;33.58;31.80;;;;;;;;;;5031652;28;20448;-60
2024/02/01 01:31:12;;;;;;;37.90;35.90;;;;;;;;;;5032547;28;20057;-59
2024/02/01 01:33:40;;;;;;;37.95;36.03;;;;;;;;;;5033787;28;20124;-60
2024/02/01 01:36:06;;;;;;;38.30;36.30;;;;;;;;;;5030483;28;20033;-50
2024/02/01 01:38:31;;;;;;;36.17;34.33;;;;;;;;;;5031322;28;20111;-49
2024/02/01 01:40:56;;;;;;;38.40;36.42;;;;;;;;;;5032050;28;20037;-60
2024/02/01 01:43:22;;;;;;;39.22;37.22;;;;;;;;;;5032493;28;20037;-53
2024/02/01 01:46:03;;;;;;;36.83;34.92;;;;;;;;;;5030566;28;20055;-60
2024/02/01 01:48:29;;;;;;;37.25;35.35;;;;;;;;;;5033828;28;20778;-60
2024/02/01 01:50:57;;;;;;;36.70;34.80;;;;;;;;;;5031390;28;20060;-60
2024/02/01 01:53:22;;;;;;;38.83;36.70;;;;;;;;;;5033581;28;20060;-60
2024/02/01 01:55:48;;;;;;;42.17;39.95;;;;;;;;;;5032873;28;20061;-60
2024/02/01 01:58:14;;;;;;;39.55;37.53;;;;;;;;;;5033282;28;20040;-60
2024/02/01 02:00:41;;;;;;;36.70;34.80;;;;;;;;;;5036337;28;20037;-60
2024/02/01 02:03:06;;;;;;;38.13;36.03;;;;;;;;;;5032391;28;20045;-60
2024/02/01 02:05:32;;;;;;;35.70;33.88;;;;;;;;;;5033778;28;20821;-60
2024/02/01 02:07:57;;;;;;;38.35;36.38;;;;;;;;;;5034276;28;20025;-60
2024/02/01 02:10:22;;;;;;;35.03;33.13;;;;;;;;;;5035385;28;20113;-60
2024/02/01 02:12:48;;;;;;;33.25;31.52;;;;;;;;;;5035647;28;20034;-60
2024/02/01 02:15:16;;;;;;;35.55;33.75;;;;;;;;;;5035484;28;20033;-60
2024/02/01 02:17:41;;;;;;;40.92;38.83;;;;;;;;;;5035190;28;20115;-52
2024/02/01 02:20:18;;;;;;;40.35;38.30;;;;;;;;;;5033022;28;20584;-60
2024/02/01 02:22:45;;;;;;;36.25;34.38;;;;;;;;;;5037540;28;20113;-60
2024/02/01 02:25:13;;;;;;;40.38;38.28;;;;;;;;;;5033965;28;20406;-60
2024/02/01 02:27:40;;;;;;;37.63;35.65;;;;;;;;;;5035033;28;20037;-60
2024/02/01 02:30:07;;;;;;;42.05;39.90;;;;;;;;;;5035129;28;20124;-51
2024/02/01 02:32:32;;;;;;;41.40;39.15;;;;;;;;;;5033195;28;20029;-49
2024/02/01 02:34:57;;;;;;;42.08;39.97;;;;;;;;;;5036041;28;20037;-60
2024/02/01 02:37:23;;;;;;;40.78;38.70;;;;;;;;;;5037383;28;20083;-60
2024/02/01 02:39:49;;;;;;;36.35;34.42;;;;;;;;;;5035307;28;20680;-60
2024/02/01 02:42:14;;;;;;;40.53;38.22;;;;;;;;;;5037015;28;20123;-49
2024/02/01 02:44:40;;;;;;;42.15;40.03;;;;;;;;;;5036823;28;20055;-60
2024/02/01 02:47:05;;;;;;;40.63;38.55;;;;;;;;;;5036413;28;20094;-60
2024/02/01 02:49:32;;;;;;;42.55;40.35;;;;;;;;;;5037781;28;20355;-50
2024/02/01 02:51:58;;;;;;;36.15;34.28;;;;;;;;;;5036565;28;20033;-52
2024/02/01 02:54:23;;;;;;;41.90;39.75;;;;;;;;;;5037057;28;20048;-60
2024/02/01 02:56:49;;;;;;;41.70;39.50;;;;;;;;;;5037487;28;20048;-60
2024/02/01 02:59:14;;;;;;;39.35;37.35;;;;;;;;;;5036085;28;20044;-60
2024/02/01 03:01:42;;;;;;;39.33;37.22;;;;;;;;;;5035781;28;20040;-51
2024/02/01 03:04:08;;;;;;;44.22;41.97;;;;;;;;;;5033803;28;20041;-52
2024/02/01 03:06:34;;;;;;;44.28;42.03;;;;;;;;;;5035146;28;20090;-49
2024/02/01 03:08:59;;;;;;;42.80;40.60;;;;;;;;;;5034371;28;20041;-52
2024/02/01 03:11:25;;;;;;;43.75;41.50;;;;;;;;;;5035809;28;20033;-49
2024/02/01 03:13:50;;;;;;;44.05;41.75;;;;;;;;;;5037098;28;20466;-50
2024/02/01 03:16:16;;;;;;;44.08;41.78;;;;;;;;;;5034259;28;20029;-60
2024/02/01 03:18:44;;;;;;;43.55;41.03;;;;;;;;;;5035247;28;20048;-60
2024/02/01 03:21:16;;;;;;;44.42;42.17;;;;;;;;;;5034517;28;20110;-60
2024/02/01 03:23:47;;;;;;;45.50;43.17;;;;;;;;;;5034664;28;20068;-61
2024/02/01 03:26:13;;;;;;;45.83;43.47;;;;;;;;;;5035110;28;20447;-60
2024/02/01 03:28:43;;;;;;;53.83;51.13;;;;;;;;;;5036038;28;20076;-51
2024/02/01 03:31:09;;;;;;;49.45;46.85;;;;;;;;;;5037692;28;20036;-51
2024/02/01 03:33:44;;;;;;;52.88;50.17;;;;;;;;;;5033122;28;20040;-49
2024/02/01 03:36:10;;;;;;;52.70;49.90;;;;;;;;;;5031574;28;20033;-51
2024/02/01 03:38:42;;;;;;;55.67;52.88;;;;;;;;;;5035445;28;20378;-52
2024/02/01 03:41:07;;;;;;;54.95;52.05;;;;;;;;;;5033578;28;20139;-50
2024/02/01 03:43:33;;;;;;;55.45;52.45;;;;;;;;;;5034885;28;20029;-52
2024/02/01 03:45:58;;;;;;;55.17;52.35;;;;;;;;;;5033227;28;20140;-50
2024/02/01 03:48:24;;;;;;;53.45;50.75;;;;;;;;;;5034209;28;20104;-60
2024/02/01 03:50:50;;;;;;;59.95;56.85;;;;;;;;;;5034308;28;20037;-60
2024/02/01 03:53:18;;;;;;;55.25;52.38;;;;;;;;;;5032818;28;20037;-60
2024/02/01 03:55:48;;;;;;;56.92;54.03;;;;;;;;;;5035894;28;20029;-51
2024/02/01 03:58:15;;;;;;;57.63;54.72;;;;;;;;;;5035413;28;20056;-50
2024/02/01 04:00:40;;;;;;;59.08;56.05;;;;;;;;;;5035099;28;20037;-49
2024/02/01 04:03:13;;;;;;;59.45;56.45;;;;;;;;;;5032377;28;20051;-57
2024/02/01 04:05:39;;;;;;;59.78;56.78;;;;;;;;;;5037032;28;20037;-50
2024/02/01 04:08:06;;;;;;;59.30;56.30;;;;;;;;;;5034955;28;20079;-52
2024/02/01 04:10:34;;;;;;;60.83;57.75;;;;;;;;;;5033521;28;20362;-51
2024/02/01 04:12:59;;;;;;;63.13;59.88;;;;;;;;;;5036860;28;20037;-52
2024/02/01 04:15:25;;;;;;;65.45;62.13;;;;;;;;;;5030088;28;20037;-51
2024/02/01 04:17:50;;;;;;;72.57;68.95;;;;;;;;;;5033112;28;20029;-50
2024/02/01 04:20:15;;;;;;;75.35;71.55;;;;;;;;;;5031524;28;20045;-51
2024/02/01 04:22:42;;;;;;;91.28;86.70;;;;;;;;;;5033972;28;20037;-52
2024/02/01 04:25:08;;;;;;;95.05;90.18;;;;;;;;;;5033664;28;20033;-51
2024/02/01 04:27:35;;;;;;;110.45;104.78;;;;;;;;;;5035121;28;20356;-53
2024/02/01 04:30:00;;;;;;;110.13;104.60;;;;;;;;;;5032831;28;20065;-51
2024/02/01 04:32:25;;;;;;;126.22;119.88;;;;;;;;;;5034569;28;20367;-53
2024/02/01 04:34:51;;;;;;;139.43;132.38;;;;;;;;;;5031741;28;20095;-51
2024/02/01 04:37:18;;;;;;;155.48;147.68;;;;;;;;;;5033197;28;20029;-50
2024/02/01 04:39:45;;;;;;;156.35;148.15;;;;;;;;;;5034199;28;20102;-53
2024/02/01 04:42:14;;;;;;;158.85;150.85;;;;;;;;;;5031327;28;20041;-49
2024/02/01 04:44:43;;;;;;;169.13;160.50;;;;;;;;;;5032718;28;20039;-51
2024/02/01 04:47:09;;;;;;;174.02;164.95;;;;;;;;;;5032287;28;20045;-51
2024/02/01 04:49:34;;;;;;;183.70;174.52;;;;;;;;;;5036643;28;20030;-52
2024/02/01 04:52:00;;;;;;;178.40;169.45;;;;;;;;;;5030924;28;21246;-51
2024/02/01 04:54:27;;;;;;;190.93;181.27;;;;;;;;;;5033339;28;20029;-60
2024/02/01 04:56:54;;;;;;;183.65;174.45;;;;;;;;;;5032708;28;20128;-60
2024/02/01 04:59:20;;;;;;;199.35;189.43;;;;;;;;;;5033872;28;20037;-51
2024/02/01 05:01:45;;;;;;;195.73;185.85;;;;;;;;;;5031540;28;20026;-54
2024/02/01 05:04:13;;;;;;;198.77;188.85;;;;;;;;;;5032337;28;20042;-52
2024/02/01 05:06:42;;;;;;;203.60;193.43;;;;;;;;;;5032326;28;20025;-53
2024/02/01 05:09:40;;;;;;;207.65;197.35;;;;;;;;;;5031213;28;20041;-60
2024/02/01 05:11:59;;;;;;;204.48;194.30;;;;;;;;;;5032445;28;20353;-56
2024/02/01 05:14:25;;;;;;;219.07;208.18;;;;;;;;;;5030338;28;20047;-55
2024/02/01 05:16:51;;;;;;;204.68;194.43;;;;;;;;;;5031768;28;20032;-60
2024/02/01 05:19:17;;;;;;;208.10;197.35;;;;;;;;;;5031890;28;20025;-61
2024/02/01 05:21:43;;;;;;;210.50;199.90;;;;;;;;;;5031869;28;20673;-58
2024/02/01 05:24:13;;;;;;;218.95;208.07;;;;;;;;;;5028860;28;20044;-57
2024/02/01 05:26:46;;;;;;;200.85;190.90;;;;;;;;;;5032926;28;20040;-60
2024/02/01 05:29:15;;;;;;;210.88;200.35;;;;;;;;;;5029573;28;20469;-57
2024/02/01 05:31:47;;;;;;;207.05;196.77;;;;;;;;;;5036952;28;20038;-56
2024/02/01 05:34:14;;;;;;;205.95;195.63;;;;;;;;;;5034429;28;20025;-55
2024/02/01 05:36:39;;;;;;;199.95;189.93;;;;;;;;;;5037771;28;20091;-60
2024/02/01 05:39:05;;;;;;;207.02;196.68;;;;;;;;;;5036201;28;20029;-60
2024/02/01 05:41:31;;;;;;;198.85;188.95;;;;;;;;;;5038294;28;20036;-60
2024/02/01 05:43:56;;;;;;;199.02;189.20;;;;;;;;;;5035568;28;20327;-61
2024/02/01 05:46:21;;;;;;;191.40;181.95;;;;;;;;;;5034509;28;20029;-55
2024/02/01 05:48:47;;;;;;;193.63;184.05;;;;;;;;;;5037461;28;20064;-62
2024/02/01 05:51:12;;;;;;;184.73;175.52;;;;;;;;;;5034132;28;20107;-57
2024/02/01 05:53:40;;;;;;;190.73;181.23;;;;;;;;;;5037397;28;20033;-56
2024/02/01 05:56:05;;;;;;;192.25;182.43;;;;;;;;;;5033738;28;20471;-57
2024/02/01 05:58:31;;;;;;;202.82;192.73;;;;;;;;;;5036368;28;20471;-56
2024/02/01 06:00:57;;;;;;;200.88;190.95;;;;;;;;;;5033200;28;20039;-57
2024/02/01 06:03:23;;;;;;;189.98;180.55;;;;;;;;;;5033580;28;20044;-55
2024/02/01 06:05:48;;;;;;;196.52;186.82;;;;;;;;;;5036253;28;20086;-62
2024/02/01 06:08:18;;;;;;;198.35;188.57;;;;;;;;;;5034449;28;20069;-57
2024/02/01 06:10:44;;;;;;;197.50;187.73;;;;;;;;;;5033878;28;20124;-57
2024/02/01 06:13:11;;;;;;;194.85;185.20;;;;;;;;;;5034146;28;20136;-59
2024/02/01 06:15:36;;;;;;;217.48;206.70;;;;;;;;;;5033474;28;20088;-55
2024/02/01 06:18:02;;;;;;;194.48;184.88;;;;;;;;;;5032054;28;20675;-56
2024/02/01 06:20:27;;;;;;;199.98;190.07;;;;;;;;;;5034372;28;20049;-56
2024/02/01 06:22:53;;;;;;;200.05;190.25;;;;;;;;;;5037816;28;20793;-57
2024/02/01 06:25:18;;;;;;;190.90;181.40;;;;;;;;;;5034371;28;20040;-61
2024/02/01 06:27:43;;;;;;;189.55;180.10;;;;;;;;;;5037339;28;20080;-60
2024/02/01 06:30:10;;;;;;;190.73;181.25;;;;;;;;;;5034718;28;20485;-52
2024/02/01 06:32:36;;;;;;;181.48;172.52;;;;;;;;;;5038751;28;20040;-55
2024/02/01 06:35:06;;;;;;;180.82;171.85;;;;;;;;;;5033748;28;20045;-52
2024/02/01 06:37:32;;;;;;;176.35;167.50;;;;;;;;;;5036041;28;20061;-55
2024/02/01 06:40:10;;;;;;;178.77;169.77;;;;;;;;;;5035007;28;20040;-55
2024/02/01 06:42:54;;;;;;;182.60;173.13;;;;;;;;;;5036079;28;20604;-60
2024/02/01 06:45:32;;;;;;;172.25;163.68;;;;;;;;;;5033341;28;20049;-55
2024/02/01 06:48:04;;;;;;;170.30;161.80;;;;;;;;;;5033311;28;20047;-55
2024/02/01 06:53:35;;;;;;;162.80;154.70;;;;;;;;;;5067140;28;20043;-55
2024/02/01 06:56:07;;;;;;;171.70;163.15;;;;;;;;;;5038750;28;20269;-55
2024/02/01 06:58:46;;;;;;;186.05;176.88;;;;;;;;;;5034232;28;20089;-55
2024/02/01 07:01:24;;;;;;;191.90;182.45;;;;;;;;;;5015818;28;20028;-60
2024/02/01 07:06:39;;;;;;;179.07;170.07;;;;;;;;;;5035338;28;20433;-61
2024/02/01 07:09:27;;;;;;;189.57;180.20;;;;;;;;;;5034468;28;20482;-57
2024/02/01 07:12:18;;;;;;;175.27;166.60;;;;;;;;;;5034894;28;20157;-61
2024/02/01 07:14:48;;;;;;;180.32;171.27;;;;;;;;;;5032867;28;20025;-62
2024/02/01 07:17:31;;;;;;;188.07;178.77;;;;;;;;;;5032015;28;20029;-56
2024/02/01 07:19:57;;;;;;;179.25;170.27;;;;;;;;;;5033159;28;20177;-56
2024/02/01 07:22:38;;;;;;;176.95;168.15;;;;;;;;;;5032596;28;20041;-61
2024/02/01 07:25:23;;;;;;;164.68;156.52;;;;;;;;;;5032778;28;20438;-57
2024/02/01 07:58:08;;;;;;;161.15;153.18;;;;;;;;;;5034370;28;20033;-55
2024/02/01 08:00:34;;;;;;;186.30;177.10;;;;;;;;;;5032626;28;20040;-55
2024/02/01 08:03:04;;;;;;;179.25;170.35;;;;;;;;;;5035399;28;20056;-60
2024/02/01 08:08:17;;;;;;;172.65;164.10;;;;;;;;;;5031078;28;20272;-53
2024/02/01 08:10:45;;;;;;;182.57;173.52;;;;;;;;;;5034187;28;20343;-54
2024/02/01 08:13:12;;;;;;;192.02;182.52;;;;;;;;;;5030345;28;20478;-51
2024/02/01 08:15:41;;;;;;;180.98;172.00;;;;;;;;;;5032282;28;20140;-50
2024/02/01 08:18:08;;;;;;;180.73;171.75;;;;;;;;;;5035130;28;20028;-53
2024/02/01 08:20:42;;;;;;;188.02;178.70;;;;;;;;;;5034273;28;20526;-51
2024/02/01 08:23:09;;;;;;;186.40;177.23;;;;;;;;;;5035278;28;20037;-60
2024/02/01 08:25:40;;;;;;;178.48;169.70;;;;;;;;;;5034357;28;20103;-61
2024/02/01 08:28:08;;;;;;;172.50;164.00;;;;;;;;;;5032895;28;20032;-61
2024/02/01 08:30:34;;;;;;;170.40;161.90;;;;;;;;;;5032487;28;20111;-60
2024/02/01 08:33:03;;;;;;;172.68;164.10;;;;;;;;;;5033785;28;20045;-55
2024/02/01 08:35:35;;;;;;;172.13;163.52;;;;;;;;;;5032088;28;20099;-60
2024/02/01 08:38:02;;;;;;;176.52;167.50;;;;;;;;;;5036541;28;20041;-61
2024/02/01 08:40:27;;;;;;;173.10;164.15;;;;;;;;;;5034966;28;20084;-56
2024/02/01 08:42:57;;;;;;;183.77;174.75;;;;;;;;;;5034863;28;20445;-53
2024/02/01 08:45:27;;;;;;;168.10;159.67;;;;;;;;;;5030883;28;20108;-55
2024/02/01 08:47:53;;;;;;;183.77;174.73;;;;;;;;;;5033897;28;20179;-54
2024/02/01 08:50:18;;;;;;;192.85;183.30;;;;;;;;;;5034290;28;20116;-51
2024/02/01 08:52:46;;;;;;;188.68;179.38;;;;;;;;;;5033243;28;20433;-54
2024/02/01 08:55:14;;;;;;;185.13;175.93;;;;;;;;;;5034456;28;20063;-52
2024/02/01 08:57:43;;;;;;;191.40;181.95;;;;;;;;;;5032994;28;20041;-59
2024/02/01 09:00:25;;;;;;;188.23;178.90;;;;;;;;;;5029924;28;20048;-60
2024/02/01 09:03:15;;;;;;;186.98;177.63;;;;;;;;;;5031704;28;20048;-60
2024/02/01 09:05:45;;;;;;;178.82;169.90;;;;;;;;;;5030888;28;20029;-60
2024/02/01 09:08:13;;;;;;;178.50;169.65;;;;;;;;;;5031707;28;20033;-59
2024/02/01 09:11:00;;;;;;;165.90;157.65;;;;;;;;;;5030962;28;20367;-60
2024/02/01 09:13:28;;;;;;;169.50;161.07;;;;;;;;;;5032670;28;20043;-59
2024/02/01 09:15:53;;;;;;;169.48;161.07;;;;;;;;;;5033670;28;20033;-59
2024/02/01 09:18:20;;;;;;;179.80;170.82;;;;;;;;;;5033149;28;20479;-60
2024/02/01 09:20:46;;;;;;;181.95;172.95;;;;;;;;;;5032891;28;20056;-60
2024/02/01 09:23:11;;;;;;;194.23;184.63;;;;;;;;;;5031315;28;20033;-59
2024/02/01 09:25:38;;;;;;;179.15;170.20;;;;;;;;;;5032334;28;20099;-59
2024/02/01 09:28:11;;;;;;;178.90;170.05;;;;;;;;;;5032580;28;20053;-60
2024/02/01 09:30:47;;;;;;;180.90;171.82;;;;;;;;;;5033404;28;20494;-50
2024/02/01 09:33:18;;;;;;;179.65;170.70;;;;;;;;;;5032543;28;20067;-52
2024/02/01 09:35:47;;;;;;;163.75;155.60;;;;;;;;;;5030672;28;20025;-56
2024/02/01 09:38:13;;;;;;;160.25;152.25;;;;;;;;;;5031017;28;20025;-56
2024/02/01 09:40:41;;;;;;;173.07;164.45;;;;;;;;;;5031727;28;20620;-51
2024/02/01 09:43:20;;;;;;;162.38;154.27;;;;;;;;;;5033447;28;20114;-54
2024/02/01 09:45:52;;;;;;;168.52;160.13;;;;;;;;;;5032998;28;20044;-52
2024/02/01 09:48:19;;;;;;;166.52;158.20;;;;;;;;;;5034071;28;20029;-60
2024/02/01 09:50:53;;;;;;;166.10;157.85;;;;;;;;;;5031235;28;20025;-60
2024/02/01 09:53:28;;;;;;;169.00;160.57;;;;;;;;;;5029845;28;20037;-54
2024/02/01 09:56:03;;;;;;;159.32;151.38;;;;;;;;;;5032306;28;20037;-60
2024/02/01 09:58:32;;;;;;;158.18;150.27;;;;;;;;;;5029518;28;20034;-50
2024/02/01 10:00:58;;;;;;;156.25;148.48;;;;;;;;;;5034368;28;20037;-59
2024/02/01 10:03:27;;;;;;;151.98;144.40;;;;;;;;;;5029507;28;20039;-60
2024/02/01 10:05:54;;;;;;;148.65;141.20;;;;;;;;;;5030477;28;20099;-59
2024/02/01 10:08:19;;;;;;;147.43;140.02;;;;;;;;;;5028263;28;20454;-60
2024/02/01 10:10:48;;;;;;;149.77;142.23;;;;;;;;;;5030810;28;20056;-59
2024/02/01 10:13:14;;;;;;;140.00;133.05;;;;;;;;;;5030728;28;20041;-60
2024/02/01 10:15:43;;;;;;;137.27;130.35;;;;;;;;;;5030097;28;20466;-51
2024/02/01 10:18:16;;;;;;;131.98;125.43;;;;;;;;;;5033556;28;20056;-60
2024/02/01 10:20:47;;;;;;;140.10;133.05;;;;;;;;;;5038864;28;20097;-51
2024/02/01 10:23:13;;;;;;;;;;;;;;;;;;5028657;28;20598;-50
2024/02/01 10:25:56;;;;;;;130.32;123.50;;;;;;;;;;5035043;28;19913;-50
2024/02/01 10:28:25;;;;;;;146.57;139.25;;;;;;;;;;5034494;28;20033;-51
2024/02/01 10:30:51;;;;;;;156.27;148.45;;;;;;;;;;5030744;28;20037;-60
2024/02/01 10:33:25;;;;;;;152.77;145.18;;;;;;;;;;5033342;28;20683;-60
2024/02/01 10:35:52;;;;;;;154.32;146.63;;;;;;;;;;5035476;28;20377;-59
2024/02/01 10:38:23;;;;;;;155.60;147.82;;;;;;;;;;5035739;28;20060;-60
2024/02/01 10:40:52;;;;;;;153.15;145.43;;;;;;;;;;5034412;28;20124;-52
2024/02/01 10:43:29;;;;;;;149.02;141.57;;;;;;;;;;5035081;28;20135;-53
2024/02/01 10:46:06;;;;;;;155.85;148.05;;;;;;;;;;5035172;28;20075;-60
2024/02/01 10:48:56;;;;;;;146.10;138.80;;;;;;;;;;5035282;28;20025;-60
2024/02/01 10:51:23;;;;;;;144.00;136.80;;;;;;;;;;5031748;28;20113;-50
2024/02/01 10:53:50;;;;;;;149.10;141.60;;;;;;;;;;5035165;28;20482;-48
2024/02/01 10:56:17;;;;;;;152.82;145.23;;;;;;;;;;5035198;28;20056;-49
2024/02/01 10:58:51;;;;;;;157.27;149.32;;;;;;;;;;5034519;28;20033;-53
2024/02/01 11:01:18;;;;;;;155.75;147.93;;;;;;;;;;5032513;28;20033;-53
2024/02/01 11:03:58;;;;;;;163.95;155.73;;;;;;;;;;5034101;28;20029;-59
2024/02/01 11:06:28;;;;;;;151.75;144.18;;;;;;;;;;5033906;28;20032;-59
2024/02/01 11:08:56;;;;;;;134.75;128.02;;;;;;;;;;5034843;28;20112;-60
2024/02/01 11:11:35;;;;;;;78.05;74.03;;;;;;;;;;5034114;28;20065;-60
2024/02/01 11:14:12;;;;;;;32.97;31.27;;;;;;;;;;5035121;28;20098;-59
2024/02/01 11:16:39;;;;;;;28.63;27.13;;;;;;;;;;5032186;28;20394;-59
2024/02/01 11:19:12;;;;;;;30.45;28.85;;;;;;;;;;5035791;28;20025;-60
2024/02/01 11:21:51;;;;;;;34.42;32.63;;;;;;;;;;5035328;28;20036;-60
2024/02/01 11:24:21;;;;;;;34.25;32.45;;;;;;;;;;5035156;28;20526;-60
2024/02/01 11:26:47;;;;;;;31.90;30.15;;;;;;;;;;5034283;28;20128;-60
2024/02/01 11:29:21;;;;;;;33.47;31.77;;;;;;;;;;5028248;28;20025;-59
2024/02/01 11:31:47;;;;;;;35.88;34.03;;;;;;;;;;5033513;28;20041;-53
2024/02/01 11:34:13;;;;;;;34.38;32.58;;;;;;;;;;5032787;28;20108;-53
2024/02/01 11:36:39;;;;;;;34.85;32.83;;;;;;;;;;5034299;28;20045;-54
2024/02/01 11:39:05;;;;;;;36.42;34.53;;;;;;;;;;5033980;28;21299;-54
2024/02/01 11:41:31;;;;;;;37.67;35.70;;;;;;;;;;5027872;28;20037;-53
2024/02/01 11:43:59;;;;;;;33.13;31.38;;;;;;;;;;5032403;28;20098;-59
2024/02/01 11:46:25;;;;;;;28.67;27.17;;;;;;;;;;5028629;28;20033;-59
2024/02/01 11:48:51;;;;;;;31.60;30.00;;;;;;;;;;5029062;28;20049;-59
2024/02/01 11:51:16;;;;;;;34.78;32.97;;;;;;;;;;5032438;28;20421;-54
2024/02/01 11:53:42;;;;;;;37.17;35.28;;;;;;;;;;5030379;28;20021;-54
2024/02/01 11:56:07;;;;;;;39.40;37.22;;;;;;;;;;5034163;28;20037;-54
2024/02/01 11:58:33;;;;;;;38.92;36.92;;;;;;;;;;5035244;28;20068;-53
2024/02/01 12:00:59;;;;;;;39.45;37.40;;;;;;;;;;5035526;28;20041;-52
2024/02/01 12:03:33;;;;;;;40.30;38.17;;;;;;;;;;5031804;28;20041;-52
2024/02/01 12:06:03;;;;;;;37.58;35.63;;;;;;;;;;5035660;28;20119;-53
2024/02/01 12:08:29;;;;;;;37.65;35.72;;;;;;;;;;5034373;28;20128;-52
2024/02/01 12:10:55;;;;;;;33.25;31.55;;;;;;;;;;5029162;28;20455;-53
2024/02/01 12:13:22;;;;;;;34.45;32.55;;;;;;;;;;5028290;28;20113;-52
2024/02/01 12:15:53;;;;;;;34.17;32.38;;;;;;;;;;5032210;28;20033;-52
2024/02/01 12:18:19;;;;;;;34.08;32.28;;;;;;;;;;5033709;28;20131;-54
2024/02/01 12:20:47;;;;;;;32.30;30.60;;;;;;;;;;5033457;28;20127;-59
2024/02/01 12:23:14;;;;;;;28.75;27.23;;;;;;;;;;5036163;28;20055;-60
2024/02/01 12:25:47;;;;;;;33.33;31.63;;;;;;;;;;5030467;28;20056;-60
2024/02/01 12:28:13;;;;;;;30.10;28.50;;;;;;;;;;5032135;28;20518;-60
2024/02/01 12:30:43;;;;;;;30.23;28.58;;;;;;;;;;5028734;28;20034;-59
2024/02/01 12:33:12;;;;;;;26.00;24.60;;;;;;;;;;5035790;28;20037;-60
2024/02/01 12:35:45;;;;;;;25.92;24.52;;;;;;;;;;5032449;28;20128;-60
2024/02/01 12:38:14;;;;;;;25.27;23.95;;;;;;;;;;5034728;28;20040;-52
2024/02/01 12:40:40;;;;;;;27.13;25.45;;;;;;;;;;5031200;28;20079;-50
2024/02/01 12:43:06;;;;;;;23.88;22.58;;;;;;;;;;5035251;28;20057;-53
2024/02/01 12:45:31;;;;;;;27.20;25.77;;;;;;;;;;5031907;28;20611;-51
2024/02/01 12:47:57;;;;;;;25.95;24.55;;;;;;;;;;5031321;28;20033;-54
2024/02/01 12:50:22;;;;;;;28.80;27.30;;;;;;;;;;5032096;28;20040;-54
2024/02/01 12:52:48;;;;;;;26.95;25.27;;;;;;;;;;5032542;28;20052;-53
2024/02/01 12:55:16;;;;;;;24.92;23.63;;;;;;;;;;5034298;28;21120;-53
2024/02/01 12:57:42;;;;;;;23.77;22.48;;;;;;;;;;5033979;28;20037;-60
2024/02/01 13:00:11;;;;;;;26.60;24.92;;;;;;;;;;5033405;28;20064;-59
2024/02/01 13:02:38;;;;;;;23.52;22.23;;;;;;;;;;5032957;28;20124;-59
2024/02/01 13:05:07;;;;;;;24.60;23.20;;;;;;;;;;5031280;28;21194;-59
2024/02/01 13:07:34;;;;;;;22.45;21.15;;;;;;;;;;5033199;28;20065;-59
2024/02/01 13:10:05;;;;;;;22.80;21.60;;;;;;;;;;5033561;28;20482;-60
2024/02/01 13:12:32;;;;;;;;;;;;;;;;;;5029939;28;20038;-60
2024/02/01 13:14:59;;;;;;;23.33;22.02;;;;;;;;;;5030924;28;19916;-59
2024/02/01 13:17:30;;;;;;;26.63;25.08;;;;;;;;;;5028527;28;20056;-60
2024/02/01 13:19:55;;;;;;;25.73;24.33;;;;;;;;;;5029235;28;20455;-50
2024/02/01 13:22:29;;;;;;;23.85;22.10;;;;;;;;;;5031937;28;20041;-48
2024/02/01 13:24:54;;;;;;;26.95;25.55;;;;;;;;;;5021121;28;20029;-60
2024/02/01 13:27:20;;;;;;;24.73;23.23;;;;;;;;;;5031447;28;20021;-60
2024/02/01 13:29:45;;;;;;;22.95;21.75;;;;;;;;;;5033420;28;20039;-60
2024/02/01 13:32:12;;;;;;;24.08;22.77;;;;;;;;;;5033597;28;20072;-60
2024/02/01 13:34:41;;;;;;;22.85;21.58;;;;;;;;;;5029783;28;20037;-60
2024/02/01 13:37:07;;;;;;;22.88;21.67;;;;;;;;;;5030047;28;20068;-60
2024/02/01 13:39:33;;;;;;;24.60;23.05;;;;;;;;;;5030165;28;20037;-60
2024/02/01 13:42:03;;;;;;;24.40;23.10;;;;;;;;;;5033309;28;20067;-60
2024/02/01 13:44:30;;;;;;;27.42;25.75;;;;;;;;;;5030396;28;20160;-60
2024/02/01 13:46:56;;;;;;;26.27;24.77;;;;;;;;;;5029623;28;20098;-60
2024/02/01 13:49:22;;;;;;;23.80;22.50;;;;;;;;;;5032594;28;20060;-60
2024/02/01 13:51:48;;;;;;;24.00;22.70;;;;;;;;;;5031842;28;20164;-54
2024/02/01 13:54:14;;;;;;;26.67;25.25;;;;;;;;;;5036881;28;20112;-50
2024/02/01 13:56:40;;;;;;;23.88;22.45;;;;;;;;;;5033043;28;20135;-51
2024/02/01 13:59:05;;;;;;;23.50;22.20;;;;;;;;;;5037393;28;20389;-52
2024/02/01 14:01:31;;;;;;;22.23;21.02;;;;;;;;;;5032915;28;20030;-53
2024/02/01 14:03:58;;;;;;;23.15;21.23;;;;;;;;;;5036639;28;20037;-54
2024/02/01 14:06:23;;;;;;;23.20;21.50;;;;;;;;;;5035834;28;20029;-51
2024/02/01 14:08:48;;;;;;;22.00;20.80;;;;;;;;;;5034911;28;20123;-50
2024/02/01 14:11:14;;;;;;;25.58;24.20;;;;;;;;;;5034505;28;20090;-51
2024/02/01 14:13:39;;;;;;;27.77;26.27;;;;;;;;;;5037159;28;20489;-53
2024/02/01 14:16:07;;;;;;;24.05;22.70;;;;;;;;;;5033004;28;20037;-53
2024/02/01 14:18:33;;;;;;;23.88;22.58;;;;;;;;;;5037282;28;20040;-51
2024/02/01 14:20:58;;;;;;;26.50;25.00;;;;;;;;;;5036489;28;20421;-51
2024/02/01 14:23:27;;;;;;;24.05;22.75;;;;;;;;;;5039565;28;20041;-55
2024/02/01 14:25:53;;;;;;;24.00;22.70;;;;;;;;;;5037110;28;20047;-52
2024/02/01 14:28:19;;;;;;;24.30;23.00;;;;;;;;;;5035973;28;20021;-55
2024/02/01 14:30:44;;;;;;;26.13;24.67;;;;;;;;;;5033349;28;20041;-51
2024/02/01 14:33:09;;;;;;;24.70;23.35;;;;;;;;;;5035246;28;20067;-53
2024/02/01 14:35:35;;;;;;;22.42;21.23;;;;;;;;;;5034042;28;20045;-53
2024/02/01 14:38:00;;;;;;;22.75;21.55;;;;;;;;;;5031927;28;20148;-55
2024/02/01 14:40:25;;;;;;;25.17;23.77;;;;;;;;;;5036009;28;20052;-55
2024/02/01 14:42:51;;;;;;;23.80;22.50;;;;;;;;;;5035516;28;20036;-59
2024/02/01 14:45:16;;;;;;;24.08;22.70;;;;;;;;;;5031474;28;20506;-60
2024/02/01 14:47:42;;;;;;;25.17;23.70;;;;;;;;;;5033377;28;20028;-53
2024/02/01 14:50:07;;;;;;;26.02;24.63;;;;;;;;;;5033880;28;20033;-59